createdAt,value
2022-08-26T00:01:17.980Z,22.03
2022-08-26T00:03:54.556Z,21.95
2022-08-26T00:06:27.603Z,21.95
2022-08-26T00:08:57.739Z,21.81
2022-08-26T00:11:27.863Z,21.75
2022-08-26T00:13:59.104Z,21.84
2022-08-26T00:16:31.597Z,21.84
2022-08-26T00:19:02.168Z,21.78
2022-08-26T00:21:34.917Z,21.91
2022-08-26T00:24:08.139Z,21.83
2022-08-26T00:26:38.926Z,21.78
2022-08-26T00:29:12.493Z,21.71
2022-08-26T00:31:45.109Z,21.70
2022-08-26T00:34:19.319Z,21.62
2022-08-26T00:36:52.455Z,21.55
2022-08-26T00:39:23.368Z,21.60
2022-08-26T00:41:53.781Z,21.53
2022-08-26T00:44:23.925Z,21.53
2022-08-26T00:46:58.473Z,21.51
2022-08-26T00:49:37.544Z,21.62
2022-08-26T00:52:13.046Z,21.53
2022-08-26T00:54:49.584Z,21.50
2022-08-26T00:57:21.679Z,21.44
2022-08-26T00:59:57.330Z,21.42
2022-08-26T01:02:28.996Z,21.48
2022-08-26T01:05:03.412Z,21.39
2022-08-26T01:07:37.936Z,21.31
2022-08-26T01:10:12.167Z,21.28
2022-08-26T01:12:45.997Z,21.37
2022-08-26T01:15:21.088Z,21.27
2022-08-26T01:17:51.711Z,21.21
2022-08-26T01:20:30.279Z,21.17
2022-08-26T01:23:05.692Z,21.18
2022-08-26T01:25:43.615Z,21.15
2022-08-26T01:28:17.605Z,21.17
2022-08-26T01:30:51.153Z,21.13
2022-08-26T01:33:28.121Z,21.09
2022-08-26T01:35:59.180Z,21.02
2022-08-26T01:38:32.881Z,21.01
2022-08-26T01:41:03.793Z,20.94
2022-08-26T01:43:48.440Z,20.98
2022-08-26T01:46:20.491Z,20.94
2022-08-26T01:48:52.349Z,20.88
2022-08-26T01:51:27.574Z,20.87
2022-08-26T01:54:01.689Z,20.88
2022-08-26T01:56:33.162Z,20.88
2022-08-26T01:59:12.222Z,20.82
2022-08-26T02:01:42.908Z,20.77
2022-08-26T02:04:19.492Z,20.78
2022-08-26T02:06:51.468Z,20.72
2022-08-26T02:09:25.968Z,20.64
2022-08-26T02:11:57.295Z,20.59
2022-08-26T02:14:31.699Z,20.49
2022-08-26T02:17:03.682Z,20.45
2022-08-26T02:19:40.389Z,20.40
2022-08-26T02:22:17.909Z,20.36
2022-08-26T02:24:53.372Z,20.31
2022-08-26T02:27:32.447Z,20.26
2022-08-26T02:30:13.007Z,20.24
2022-08-26T02:32:43.517Z,20.20
2022-08-26T02:35:20.015Z,20.19
2022-08-26T02:37:51.152Z,20.30
2022-08-26T02:40:26.936Z,20.34
2022-08-26T02:42:57.270Z,20.27
2022-08-26T02:45:29.265Z,20.18
2022-08-26T02:48:00.953Z,20.25
2022-08-26T02:50:31.152Z,20.20
2022-08-26T02:53:01.589Z,20.22
2022-08-26T02:55:35.681Z,20.28
2022-08-26T02:58:06.281Z,20.23
2022-08-26T03:00:52.612Z,20.20
2022-08-26T03:03:24.244Z,20.23
2022-08-26T03:05:54.518Z,20.22
2022-08-26T03:08:25.018Z,20.41
2022-08-26T03:10:58.176Z,20.23
2022-08-26T03:13:31.776Z,20.21
2022-08-26T03:16:04.604Z,20.42
2022-08-26T03:18:35.371Z,20.35
2022-08-26T03:21:09.101Z,20.20
2022-08-26T03:23:40.170Z,20.19
2022-08-26T03:26:15.355Z,20.13
2022-08-26T03:28:58.584Z,20.14
2022-08-26T03:31:28.910Z,20.08
2022-08-26T03:33:59.309Z,20.22
2022-08-26T03:36:30.274Z,20.06
2022-08-26T03:39:01.168Z,20.00
2022-08-26T03:41:34.734Z,20.02
2022-08-26T03:44:05.298Z,20.08
2022-08-26T03:46:36.577Z,20.10
2022-08-26T03:49:07.464Z,20.05
2022-08-26T03:51:39.949Z,20.03
2022-08-26T03:54:12.397Z,20.00
2022-08-26T03:56:46.593Z,20.03
2022-08-26T03:59:16.980Z,19.90
2022-08-26T04:01:47.211Z,19.87
2022-08-26T04:04:18.644Z,19.89
2022-08-26T04:06:53.251Z,19.95
2022-08-26T04:09:23.801Z,19.98
2022-08-26T04:11:59.212Z,19.97
2022-08-26T04:14:31.344Z,19.98
2022-08-26T04:17:05.077Z,19.97
2022-08-26T04:19:36.279Z,20.10
2022-08-26T04:22:06.591Z,20.01
2022-08-26T04:24:39.678Z,19.97
2022-08-26T04:27:12.506Z,20.01
2022-08-26T04:29:43.200Z,20.00
2022-08-26T04:32:13.340Z,20.03
2022-08-26T04:34:43.708Z,20.14
2022-08-26T04:37:15.258Z,20.14
2022-08-26T04:39:45.599Z,20.10
2022-08-26T04:42:25.872Z,20.16
2022-08-26T04:44:56.388Z,20.31
2022-08-26T04:47:31.688Z,20.30
2022-08-26T04:50:02.518Z,20.39
2022-08-26T04:52:32.714Z,20.40
2022-08-26T04:55:02.858Z,20.47
2022-08-26T04:57:36.094Z,20.47
2022-08-26T05:00:08.185Z,20.51
2022-08-26T05:02:38.388Z,20.62
2022-08-26T05:05:10.227Z,20.66
2022-08-26T05:07:40.346Z,20.83
2022-08-26T05:10:12.464Z,20.96
2022-08-26T05:12:47.684Z,21.07
2022-08-26T05:15:18.206Z,21.13
2022-08-26T05:17:53.670Z,21.19
2022-08-26T05:20:26.092Z,21.30
2022-08-26T05:22:56.561Z,21.58
2022-08-26T05:25:27.386Z,21.69
2022-08-26T05:28:00.539Z,21.78
2022-08-26T05:30:33.139Z,21.88
2022-08-26T05:33:05.148Z,22.04
2022-08-26T05:35:36.178Z,22.18
2022-08-26T05:38:12.671Z,22.32
2022-08-26T05:40:45.524Z,22.41
2022-08-26T05:43:20.214Z,22.47
2022-08-26T05:45:53.041Z,22.54
2022-08-26T05:48:24.611Z,22.69
2022-08-26T05:50:56.191Z,22.75
2022-08-26T05:53:26.364Z,22.77
2022-08-26T05:55:58.427Z,22.83
2022-08-26T05:58:32.620Z,22.86
2022-08-26T06:01:05.393Z,22.98
2022-08-26T06:03:37.516Z,22.93
2022-08-26T06:06:09.826Z,22.95
2022-08-26T06:08:40.902Z,23.06
2022-08-26T06:11:18.440Z,23.05
2022-08-26T06:13:51.567Z,23.34
2022-08-26T06:16:23.977Z,23.44
2022-08-26T06:18:56.094Z,23.64
2022-08-26T06:21:29.084Z,23.82
2022-08-26T06:24:14.103Z,23.89
2022-08-26T06:26:46.670Z,23.99
2022-08-26T06:29:25.595Z,24.08
2022-08-26T06:31:56.625Z,24.18
2022-08-26T06:34:29.712Z,24.18
2022-08-26T06:37:02.771Z,24.31
2022-08-26T06:39:34.266Z,24.35
2022-08-26T06:42:06.327Z,24.55
2022-08-26T06:44:41.027Z,24.75
2022-08-26T06:47:11.454Z,24.81
2022-08-26T06:49:41.596Z,25.00
2022-08-26T06:52:11.892Z,25.17
2022-08-26T06:54:43.622Z,25.28
2022-08-26T06:57:16.710Z,25.21
2022-08-26T06:59:51.181Z,25.42
2022-08-26T07:02:21.465Z,25.42
2022-08-26T07:04:51.625Z,25.71
2022-08-26T07:07:24.585Z,25.78
2022-08-26T07:09:55.233Z,25.96
2022-08-26T07:12:25.983Z,25.90
2022-08-26T07:14:58.953Z,26.03
2022-08-26T07:17:29.391Z,26.16
2022-08-26T07:20:00.183Z,26.24
2022-08-26T07:22:30.610Z,26.19
2022-08-26T07:25:00.755Z,26.20
2022-08-26T07:27:30.900Z,26.34
2022-08-26T07:30:03.995Z,26.43
2022-08-26T07:32:33.841Z,26.60
2022-08-26T07:35:04.141Z,26.67
2022-08-26T07:37:39.077Z,26.66
2022-08-26T07:40:12.107Z,26.81
2022-08-26T07:42:42.966Z,26.87
2022-08-26T07:45:16.038Z,27.06
2022-08-26T07:47:46.519Z,27.26
2022-08-26T07:50:17.277Z,27.15
2022-08-26T07:52:47.875Z,27.09
2022-08-26T07:55:18.497Z,27.21
2022-08-26T07:57:48.813Z,27.21
2022-08-26T08:00:21.867Z,27.47
2022-08-26T08:02:52.305Z,27.45
2022-08-26T08:05:33.338Z,27.93
2022-08-26T08:08:27.539Z,27.66
2022-08-26T08:10:55.410Z,27.74
2022-08-26T08:13:26.649Z,27.79
2022-08-26T08:15:59.458Z,28.03
2022-08-26T08:18:29.628Z,27.81
2022-08-26T08:21:21.458Z,28.33
2022-08-26T08:23:53.999Z,27.97
2022-08-26T08:26:24.573Z,28.40
2022-08-26T08:28:58.684Z,28.43
2022-08-26T08:31:56.036Z,28.67
2022-08-26T08:34:23.677Z,28.58
2022-08-26T08:36:56.383Z,28.79
2022-08-26T08:39:27.027Z,28.79
2022-08-26T08:42:16.685Z,28.68
2022-08-26T08:44:52.401Z,28.67
2022-08-26T08:47:34.366Z,28.88
2022-08-26T08:50:13.617Z,28.72
2022-08-26T08:52:47.470Z,28.83
2022-08-26T08:55:19.273Z,29.09
2022-08-26T08:58:03.114Z,28.81
2022-08-26T09:00:44.442Z,28.92
2022-08-26T09:03:26.494Z,29.03
2022-08-26T09:05:57.044Z,29.36
2022-08-26T09:08:35.287Z,29.17
2022-08-26T09:11:06.879Z,29.45
2022-08-26T09:13:37.880Z,29.46
2022-08-26T09:16:16.188Z,29.91
2022-08-26T09:19:11.288Z,29.80
2022-08-26T09:21:41.516Z,29.63
2022-08-26T09:24:13.923Z,30.06
2022-08-26T09:26:49.783Z,30.10
2022-08-26T09:29:27.025Z,30.05
2022-08-26T09:32:21.312Z,30.18
2022-08-26T09:35:06.147Z,30.22
2022-08-26T09:37:39.830Z,30.37
2022-08-26T09:40:21.945Z,30.45
2022-08-26T09:43:10.209Z,30.37
2022-08-26T09:45:50.270Z,30.03
2022-08-26T09:48:31.816Z,30.12
2022-08-26T09:51:10.156Z,30.14
2022-08-26T09:53:54.214Z,30.55
2022-08-26T09:56:32.271Z,30.48
2022-08-26T09:59:04.027Z,30.56
2022-08-26T10:01:40.319Z,31.01
2022-08-26T10:04:14.950Z,30.76
2022-08-26T10:06:59.403Z,31.25
2022-08-26T10:09:30.884Z,30.89
2022-08-26T10:12:05.516Z,31.13
2022-08-26T10:14:39.498Z,31.19
2022-08-26T10:17:15.862Z,31.12
2022-08-26T10:19:57.166Z,31.14
2022-08-26T10:22:36.617Z,31.07
2022-08-26T10:25:11.166Z,31.36
2022-08-26T10:27:52.706Z,31.42
2022-08-26T10:30:26.176Z,31.57
2022-08-26T10:33:04.126Z,31.40
2022-08-26T10:35:36.304Z,31.67
2022-08-26T10:38:14.694Z,31.39
2022-08-26T10:40:55.305Z,31.78
2022-08-26T10:43:29.466Z,31.73
2022-08-26T10:46:04.170Z,31.93
2022-08-26T10:48:42.109Z,31.90
2022-08-26T10:51:14.416Z,32.12
2022-08-26T10:53:56.062Z,31.99
2022-08-26T10:56:42.269Z,32.40
2022-08-26T10:59:23.007Z,32.20
2022-08-26T11:02:00.893Z,32.67
2022-08-26T11:04:59.810Z,32.10
2022-08-26T11:07:43.717Z,32.39
2022-08-26T11:10:45.830Z,32.27
2022-08-26T11:13:18.761Z,32.54
2022-08-26T11:16:11.222Z,32.43
2022-08-26T11:18:54.811Z,32.66
2022-08-26T11:22:15.187Z,32.54
2022-08-26T11:25:02.741Z,32.70
2022-08-26T11:27:55.697Z,32.64
2022-08-26T11:30:47.862Z,32.28
2022-08-26T11:33:52.123Z,32.39
2022-08-26T11:36:43.887Z,32.51
2022-08-26T11:39:22.177Z,32.33
2022-08-26T11:41:54.344Z,32.86
2022-08-26T11:44:26.726Z,32.78
2022-08-26T11:47:03.266Z,33.01
2022-08-26T11:49:35.030Z,33.07
2022-08-26T11:52:20.899Z,32.94
2022-08-26T11:55:05.247Z,33.03
2022-08-26T11:57:38.095Z,32.96
2022-08-26T12:00:12.496Z,32.96
2022-08-26T12:02:47.356Z,32.92
2022-08-26T12:05:23.763Z,32.97
2022-08-26T12:07:55.337Z,32.77
2022-08-26T12:10:32.022Z,32.66
2022-08-26T12:13:03.355Z,32.75
2022-08-26T12:15:35.755Z,32.36
2022-08-26T12:18:29.713Z,32.88
2022-08-26T12:21:03.464Z,33.13
2022-08-26T12:23:44.531Z,33.29
2022-08-26T12:26:23.924Z,33.14
2022-08-26T12:28:58.164Z,33.49
2022-08-26T12:31:34.458Z,33.35
2022-08-26T12:34:17.554Z,33.43
2022-08-26T12:36:51.366Z,33.47
2022-08-26T12:39:29.997Z,33.23
2022-08-26T12:42:01.842Z,33.10
2022-08-26T12:44:53.745Z,33.18
2022-08-26T12:47:42.282Z,33.21
2022-08-26T12:50:22.744Z,33.22
2022-08-26T12:53:01.807Z,33.17
2022-08-26T12:55:42.328Z,33.35
2022-08-26T12:58:23.574Z,33.09
2022-08-26T13:00:56.144Z,33.13
2022-08-26T13:03:33.660Z,33.17
2022-08-26T13:06:19.801Z,33.07
2022-08-26T13:08:51.600Z,33.44
2022-08-26T13:11:24.966Z,33.37
2022-08-26T13:13:58.395Z,33.48
2022-08-26T13:16:29.183Z,33.37
2022-08-26T13:19:01.847Z,33.37
2022-08-26T13:21:37.338Z,33.27
2022-08-26T13:24:11.914Z,33.49
2022-08-26T13:26:42.922Z,33.37
2022-08-26T13:29:13.660Z,33.20
2022-08-26T13:31:45.736Z,33.10
2022-08-26T13:34:21.028Z,33.31
2022-08-26T13:36:56.452Z,33.05
2022-08-26T13:39:27.381Z,33.04
2022-08-26T13:41:58.082Z,33.12
2022-08-26T13:44:28.211Z,33.14
2022-08-26T13:46:58.385Z,32.92
2022-08-26T13:49:28.764Z,32.56
2022-08-26T13:52:03.819Z,32.81
2022-08-26T13:54:33.963Z,33.18
2022-08-26T13:57:04.371Z,32.86
2022-08-26T13:59:34.772Z,33.15
2022-08-26T14:02:07.079Z,33.02
2022-08-26T14:04:38.750Z,33.01
2022-08-26T14:07:11.626Z,33.06
2022-08-26T14:09:41.736Z,32.89
2022-08-26T14:12:12.226Z,33.08
2022-08-26T14:14:42.587Z,32.61
2022-08-26T14:17:13.128Z,32.94
2022-08-26T14:19:48.278Z,32.69
2022-08-26T14:22:23.666Z,32.73
2022-08-26T14:24:54.084Z,32.45
2022-08-26T14:27:24.209Z,32.59
2022-08-26T14:29:54.557Z,32.57
2022-08-26T14:32:28.964Z,32.57
2022-08-26T14:34:59.486Z,32.50
2022-08-26T14:37:32.300Z,32.52
2022-08-26T14:40:02.490Z,32.63
2022-08-26T14:42:34.200Z,32.75
2022-08-26T14:45:07.263Z,32.77
2022-08-26T14:47:37.485Z,32.69
2022-08-26T14:50:08.781Z,32.60
2022-08-26T14:52:53.647Z,32.43
2022-08-26T14:55:23.754Z,32.24
2022-08-26T14:57:54.153Z,32.27
2022-08-26T15:00:24.482Z,32.04
2022-08-26T15:02:54.857Z,32.17
2022-08-26T15:05:25.167Z,32.31
2022-08-26T15:07:57.893Z,32.36
2022-08-26T15:10:27.814Z,32.24
2022-08-26T15:12:57.988Z,32.27
2022-08-26T15:15:30.201Z,32.04
2022-08-26T15:18:01.610Z,31.87
2022-08-26T15:23:24.661Z,31.98
2022-08-26T15:25:55.102Z,31.88
2022-08-26T15:28:25.275Z,31.81
2022-08-26T15:30:55.784Z,31.78
2022-08-26T15:33:25.962Z,31.63
2022-08-26T15:35:56.118Z,31.53
2022-08-26T15:38:31.168Z,31.59
2022-08-26T15:41:03.213Z,31.49
2022-08-26T15:43:33.639Z,31.42
2022-08-26T15:46:04.084Z,31.28
2022-08-26T15:48:34.484Z,31.38
2022-08-26T15:51:06.460Z,31.43
2022-08-26T15:53:39.238Z,31.42
2022-08-26T15:56:09.900Z,31.45
2022-08-26T15:58:40.722Z,31.33
2022-08-26T16:01:11.655Z,31.32
2022-08-26T16:03:41.827Z,31.49
2022-08-26T16:06:15.829Z,31.32
2022-08-26T16:08:50.129Z,31.32
2022-08-26T16:11:20.742Z,31.20
2022-08-26T16:13:51.040Z,31.27
2022-08-26T16:16:21.835Z,31.10
2022-08-26T16:18:52.277Z,30.99
2022-08-26T16:21:24.525Z,30.80
2022-08-26T16:23:58.462Z,30.83
2022-08-26T16:26:33.054Z,30.71
2022-08-26T16:29:05.318Z,30.60
2022-08-26T16:31:35.598Z,30.38
2022-08-26T16:34:09.294Z,30.42
2022-08-26T16:36:40.708Z,30.39
2022-08-26T16:39:14.020Z,30.38
2022-08-26T16:41:44.419Z,30.20
2022-08-26T16:44:14.655Z,30.13
2022-08-26T16:46:45.773Z,30.06
2022-08-26T16:49:16.013Z,29.91
2022-08-26T16:51:46.958Z,29.79
2022-08-26T16:54:19.716Z,29.79
2022-08-26T16:56:49.799Z,29.60
2022-08-26T16:59:19.917Z,29.37
2022-08-26T17:01:50.064Z,29.17
2022-08-26T17:04:22.005Z,28.90
2022-08-26T17:06:52.183Z,28.71
2022-08-26T17:09:24.965Z,28.52
2022-08-26T17:11:55.225Z,28.42
2022-08-26T17:14:25.368Z,28.26
2022-08-26T17:16:55.529Z,28.10
2022-08-26T17:19:25.744Z,28.02
2022-08-26T17:21:55.945Z,27.90
2022-08-26T17:24:28.679Z,27.74
2022-08-26T17:26:58.825Z,27.63
2022-08-26T17:29:29.171Z,27.55
2022-08-26T17:31:59.335Z,27.43
2022-08-26T17:34:29.453Z,27.32
2022-08-26T17:36:59.567Z,27.18
2022-08-26T17:39:32.555Z,27.08
2022-08-26T17:42:02.343Z,26.99
2022-08-26T17:44:32.503Z,26.82
2022-08-26T17:47:02.708Z,26.78
2022-08-26T17:49:32.866Z,26.61
2022-08-26T17:52:03.312Z,26.51
2022-08-26T17:54:36.217Z,26.44
2022-08-26T17:57:06.461Z,26.34
2022-08-26T17:59:41.628Z,26.24
2022-08-26T18:02:11.776Z,26.15
2022-08-26T18:04:41.963Z,26.04
2022-08-26T18:07:12.253Z,25.87
2022-08-26T18:09:45.237Z,25.75
2022-08-26T18:12:15.732Z,25.70
2022-08-26T18:14:45.923Z,25.64
2022-08-26T18:17:19.405Z,25.54
2022-08-26T18:19:50.241Z,25.46
2022-08-26T18:22:23.373Z,25.43
2022-08-26T18:24:59.270Z,25.39
2022-08-26T18:27:29.749Z,25.25
2022-08-26T18:30:00.240Z,25.23
2022-08-26T18:32:30.521Z,25.19
2022-08-26T18:35:00.740Z,25.14
2022-08-26T18:37:31.813Z,25.28
2022-08-26T18:40:04.868Z,25.04
2022-08-26T18:42:34.756Z,24.98
2022-08-26T18:45:05.168Z,24.86
2022-08-26T18:47:36.669Z,24.74
2022-08-26T18:50:08.340Z,24.65
2022-08-26T18:52:38.489Z,24.60
2022-08-26T18:55:11.794Z,24.51
2022-08-26T18:57:41.978Z,24.42
2022-08-26T19:00:13.845Z,24.43
2022-08-26T19:02:47.061Z,24.28
2022-08-26T19:05:22.475Z,24.20
2022-08-26T19:07:52.649Z,24.26
2022-08-26T19:10:25.389Z,24.30
2022-08-26T19:13:00.076Z,24.31
2022-08-26T19:15:31.458Z,24.23
2022-08-26T19:18:01.963Z,24.23
2022-08-26T19:20:32.211Z,24.43
2022-08-26T19:23:10.497Z,24.57
2022-08-26T19:25:56.353Z,24.61
2022-08-26T19:28:26.516Z,24.82
2022-08-26T19:30:56.970Z,24.72
2022-08-26T19:33:27.306Z,24.68
2022-08-26T19:35:58.942Z,24.70
2022-08-26T19:38:29.101Z,25.01
2022-08-26T19:41:01.878Z,24.99
2022-08-26T19:43:32.192Z,24.88
2022-08-26T19:46:02.437Z,24.94
2022-08-26T19:48:32.583Z,24.73
2022-08-26T19:51:02.708Z,24.62
2022-08-26T19:53:33.268Z,24.72
2022-08-26T19:56:06.375Z,24.62
2022-08-26T19:58:36.684Z,24.44
2022-08-26T20:01:10.174Z,24.34
2022-08-26T20:03:40.762Z,24.19
2022-08-26T20:06:12.821Z,24.04
2022-08-26T20:08:44.644Z,24.19
2022-08-26T20:11:19.955Z,24.13
2022-08-26T20:13:50.954Z,24.01
2022-08-26T20:16:21.339Z,23.94
2022-08-26T20:19:03.848Z,23.88
2022-08-26T20:21:38.349Z,23.82
2022-08-26T20:24:15.447Z,23.72
2022-08-26T20:26:49.010Z,23.69
2022-08-26T20:29:21.724Z,23.63
2022-08-26T20:31:52.520Z,23.64
2022-08-26T20:34:23.638Z,23.50
2022-08-26T20:36:54.043Z,23.46
2022-08-26T20:39:24.644Z,23.38
2022-08-26T20:41:57.797Z,23.58
2022-08-26T20:44:27.995Z,23.52
2022-08-26T20:46:59.329Z,23.42
2022-08-26T20:49:30.473Z,23.35
2022-08-26T20:52:03.838Z,23.34
2022-08-26T20:54:34.434Z,23.35
2022-08-26T20:57:08.222Z,23.56
2022-08-26T20:59:38.665Z,23.64
2022-08-26T21:02:09.297Z,23.58
2022-08-26T21:04:40.583Z,23.66
2022-08-26T21:07:10.777Z,23.58
2022-08-26T21:09:41.439Z,23.45
2022-08-26T21:12:15.095Z,23.42
2022-08-26T21:14:49.036Z,23.42
2022-08-26T21:17:20.123Z,23.42
2022-08-26T21:19:50.311Z,23.54
2022-08-26T21:22:20.615Z,23.50
2022-08-26T21:24:50.801Z,23.42
2022-08-26T21:27:27.906Z,23.42
2022-08-26T21:29:59.949Z,23.34
2022-08-26T21:32:30.346Z,23.38
2022-08-26T21:35:02.538Z,23.34
2022-08-26T21:37:34.919Z,23.33
2022-08-26T21:40:05.673Z,23.35
2022-08-26T21:42:38.969Z,23.25
2022-08-26T21:45:10.159Z,23.15
2022-08-26T21:47:40.750Z,23.04
2022-08-26T21:50:12.232Z,22.96
2022-08-26T21:52:42.836Z,22.88
2022-08-26T21:55:13.462Z,22.80
2022-08-26T21:57:46.250Z,22.75
2022-08-26T22:00:17.770Z,22.66
2022-08-26T22:02:48.160Z,22.63
2022-08-26T22:05:18.918Z,22.55
2022-08-26T22:07:49.049Z,22.47
2022-08-26T22:10:19.273Z,22.37
2022-08-26T22:12:52.174Z,22.42
2022-08-26T22:15:26.024Z,22.33
2022-08-26T22:17:56.177Z,22.31
2022-08-26T22:20:26.548Z,22.31
2022-08-26T22:22:56.679Z,22.34
2022-08-26T22:25:26.804Z,22.25
2022-08-26T22:27:59.655Z,22.18
2022-08-26T22:30:32.986Z,22.11
2022-08-26T22:33:02.781Z,22.06
2022-08-26T22:35:33.619Z,22.02
2022-08-26T22:38:03.769Z,21.94
2022-08-26T22:40:35.606Z,21.89
2022-08-26T22:43:08.406Z,21.79
2022-08-26T22:45:44.729Z,21.70
2022-08-26T22:48:17.094Z,21.69
2022-08-26T22:50:49.381Z,21.64
2022-08-26T22:53:21.022Z,21.64
2022-08-26T22:55:51.652Z,21.52
2022-08-26T22:58:30.672Z,21.51
2022-08-26T23:01:02.409Z,21.47
2022-08-26T23:03:33.310Z,21.37
2022-08-26T23:06:03.597Z,21.33
2022-08-26T23:08:33.768Z,21.30
2022-08-26T23:11:05.339Z,21.24
2022-08-26T23:13:38.171Z,21.22
2022-08-26T23:16:11.984Z,21.11
2022-08-26T23:18:43.453Z,21.13
2022-08-26T23:21:13.629Z,21.13
2022-08-26T23:23:44.467Z,21.08
2022-08-26T23:26:17.641Z,21.05
2022-08-26T23:28:50.712Z,20.94
2022-08-26T23:31:20.848Z,20.92
2022-08-26T23:34:03.400Z,20.96
2022-08-26T23:36:34.944Z,20.85
2022-08-26T23:39:06.173Z,20.81
2022-08-26T23:41:36.308Z,20.65
2022-08-26T23:44:12.486Z,20.73
2022-08-26T23:46:42.656Z,20.68
2022-08-26T23:49:12.846Z,20.58
2022-08-26T23:51:55.328Z,20.64
2022-08-26T23:54:25.688Z,20.59
2022-08-26T23:56:55.842Z,20.59
2022-08-26T23:59:28.908Z,20.59
